Terminal Aerodrome Forecast
Issued by NWS

Home | Current Version | Previous Version | Text Only | Print | Product List | Glossary On
Versions: 1 2 3 4 5 6 7 8 9 10 11 12 13 14 15 16 17 18 19 20
000
FTUS43 KDLH 011100
TAFBRD
TAF
KBRD 011139Z 0112/0212 13009G16KT P6SM SCT140
     FM011500 15014G24KT P6SM BKN150
     FM012000 19014G22KT P6SM BKN120
     FM012300 25011KT P6SM BKN070
     FM020300 28009KT P6SM SCT070=

USA.gov is the U.S. government's official web portal to all federal, state and local government web resources and services.